Aérodrome :
LOGIN :

S'inscrire | Disclaimer

   EN    FR    IT 

 










Légende :    VFR   VFR Marginal   IFR   IFR Intensif   IFR Très Intensif
Visi : 
Plafond : 
>= 8 km
>= 3000ft
5 à 8 km
1000 à 3000 ft
1500m à 5 km
500 à 1000 ft
800 à 1500m
200 à 500 ft
< 800m
< 200 ft
Symboles :   Orages  Brouillard  Fortes neiges  Fortes précipitations  Vent > 20 kt
SIGMETs :   Divers  Orages  Givrage  Turbulence  Onde Orograph.  Cendres Volcan.






- Altitude de l'aérodrome : 49 ft
- Code IATA : GLZ


EHGR - Gilze-Rijen Airbase

DERNIER METAR :
  • 272204Z AUTO 19017KT 130V230 9999 FEW007 BKN016 BKN021 08/07 Q0993 WHT

METARs EXPIRÉS :
  • 272155Z AUTO 19017KT 140V230 9999 FEW007 BKN009 OVC011 08/07 Q0993 REDZ GRN
  • 272125Z AUTO 17014G25KT 130V220 6000 -RA FEW007 BKN009 OVC010 08/07 Q0994 RERA GRN
  • 272119Z AUTO 17012KT 130V200 6000 -RA FEW007 BKN009 BKN010 08/07 Q0994 GRN
  • 272100Z AUTO 17011KT 130V210 8000 RA FEW009 SCT010 BKN015CB 08/07 Q0994 GRN
  • 272059Z AUTO 17011KT 140V210 7000 RA FEW010 SCT015CB BKN016 BKN022 08/07 Q0994 WHT
  • 272055Z AUTO 17012KT 130V210 9999 RA FEW010 SCT015CB BKN024 08/07 Q0995 WHT
  • 272026Z AUTO 16011KT 130V200 9999 SHRA FEW013 FEW015CB BKN020 BKN024 08/07 Q0995 WHT
  • 272013Z AUTO 16011KT 120V200 9999 -RADZ FEW020 SCT023 BKN030 08/07 Q0996 WHT
  • 272000Z AUTO 16010KT 130V200 9999 FEW011 SCT040 BKN044 08/07 Q0996 BLU
  • 271937Z AUTO 16010KT 130V200 9999 FEW011 SCT018 OVC042 08/07 Q0997 WHT 19006KT 9999 FEW012 SCT016 BKN040 TEMPO 4500 RA SCT010 BKN014
  • 271925Z AUTO 16010KT 130V200 9999 FEW011 BKN041 OVC045 08/07 Q0997 BLU 19006KT 9999 FEW012 SCT016 BKN040 TEMPO 4500 RA SCT010 BKN014

TAF TAF EHGR
Valide du 27 à 18h jusqu'au 28 à 06h UTC


271704Z 2718/2806 18007KT 9999 SCT025 BKN045
BECMG 2718/2721 20015G25KT FEW012 BKN015
TEMPO 2720/2724 18015G25KT 4000 RA SCT008 BKN012
PROB30
TEMPO 2721/2723 3500 SHRA SCT008 BKN012 SCT018CB
BECMG 2723/2801 21012G22KT SCT018 BKN025
TEMPO 2804/2806 4000 SHRA SCT008 BKN010 SCT015CB



MET'MAP, la Météo Aéronautique d'un coup d'oeil ! - Copyright ORBIFLY Décembre 2007 - Disclaimer

ORBIFLY MET'MAP TEAM :

Programmation & Développement : Alexandra Zaïnal
Sur une idée originale de : Baudouin d'Aumeries
Assistance à la programmation : Marc-Olivier Méhu
Soutien technique & logistique : Manuel Goepfert

Contact : metmap@orbifly.com




SOURCES & CREDITS :

   NOAA